Time;durP1;ratioP1;P1;durP2;ratioP2;P2;SDS_P1;SDS_P2;PMS_P1;PMS_P2;Temp;Humidity;BMP_temperature;BMP_pressure;BME280_temperature;BME280_humidity;BME280_pressure;Samples;Min_cycle;Max_cycle;Signal;HPM_P1;HPM_P2
2023/01/17 00:01:59;;;;;;;3.60;2.10;;;6.30;99.90;;;;;;4952800;28;20441;-46
2023/01/17 00:09:57;;;;;;;4.90;2.17;;;6.40;99.90;;;;;;4952793;28;20623;-48
2023/01/17 00:12:26;;;;;;;5.13;2.20;;;6.70;99.90;;;;;;4952949;29;20413;-48
2023/01/17 00:14:54;;;;;;;3.87;2.20;;;6.60;99.90;;;;;;4953059;28;20940;-48
2023/01/17 00:17:22;;;;;;;2.90;1.93;;;6.60;99.90;;;;;;4952995;28;20423;-48
2023/01/17 01:34:44;;;;;;;2.57;1.87;;;5.60;99.90;;;;;;4952283;28;20467;-48
2023/01/17 01:37:11;;;;;;;2.77;2.00;;;6.20;99.90;;;;;;4952061;28;20422;-48
2023/01/17 01:39:38;;;;;;;3.73;2.63;;;6.10;99.90;;;;;;4951709;28;20443;-48
2023/01/17 01:42:13;;;;;;;2.83;2.27;;;5.50;99.90;;;;;;4951920;28;20427;-48
2023/01/17 01:44:45;;;;;;;4.30;2.27;;;6.10;99.90;;;;;;4951544;28;20457;-48
2023/01/17 01:47:15;;;;;;;3.50;2.40;;;6.10;99.90;;;;;;4951784;28;20526;-48
2023/01/17 01:49:43;;;;;;;3.00;2.23;;;6.10;99.90;;;;;;4951399;28;20458;-48
2023/01/17 01:52:11;;;;;;;2.93;2.23;;;5.80;99.90;;;;;;4951661;28;20410;-48
2023/01/17 01:54:42;;;;;;;2.30;1.90;;;5.80;99.90;;;;;;4951686;28;20439;-47
2023/01/17 01:57:12;;;;;;;3.03;2.40;;;6.10;99.90;;;;;;4951541;29;20908;-48
2023/01/17 01:59:43;;;;;;;3.27;2.27;;;5.70;99.90;;;;;;4951382;28;20439;-48
2023/01/17 02:02:11;;;;;;;3.10;2.30;;;5.90;99.90;;;;;;4951711;28;20447;-47
2023/01/17 02:04:38;;;;;;;2.97;2.33;;;6.00;99.90;;;;;;4951417;28;20451;-48
2023/01/17 02:07:09;;;;;;;3.87;2.00;;;6.10;99.90;;;;;;4951485;29;20436;-47
2023/01/17 02:09:36;;;;;;;4.63;2.40;;;5.80;99.90;;;;;;4951041;28;20948;-48
2023/01/17 02:12:05;;;;;;;2.87;2.00;;;5.90;99.90;;;;;;4951754;28;20809;-48
2023/01/17 02:14:32;;;;;;;4.03;2.80;;;6.00;99.90;;;;;;4951354;28;20467;-48
2023/01/17 02:17:08;;;;;;;3.83;2.30;;;6.20;99.90;;;;;;4951456;28;20929;-48
2023/01/17 02:20:06;;;;;;;4.40;2.50;;;5.60;99.90;;;;;;4951120;28;20445;-48
2023/01/17 02:23:01;;;;;;;3.70;2.50;;;6.10;99.90;;;;;;4951247;29;20435;-48
2023/01/17 02:25:52;;;;;;;3.13;2.17;;;6.00;99.90;;;;;;4951160;28;20494;-47
2023/01/17 02:28:36;;;;;;;3.10;2.67;;;6.20;99.90;;;;;;4951032;28;20485;-48
2023/01/17 02:31:09;;;;;;;3.07;2.17;;;6.20;99.90;;;;;;4951112;28;20495;-48
2023/01/17 02:33:43;;;;;;;3.30;2.43;;;6.30;99.90;;;;;;4951436;28;20434;-48
2023/01/17 02:36:18;;;;;;;4.53;2.20;;;6.40;99.90;;;;;;4951504;29;20442;-48
2023/01/17 02:38:52;;;;;;;3.50;2.23;;;6.10;99.90;;;;;;4950737;29;20403;-48
2023/01/17 02:41:22;;;;;;;2.90;2.50;;;5.90;99.90;;;;;;5017067;28;20494;-48
2023/01/17 02:43:51;;;;;;;3.60;2.60;;;6.20;99.90;;;;;;4950992;28;20463;-47
2023/01/17 02:46:19;;;;;;;3.30;2.93;;;6.10;99.90;;;;;;4951040;28;20539;-47
2023/01/17 02:48:47;;;;;;;3.60;2.33;;;5.90;99.90;;;;;;4950675;29;20441;-48
2023/01/17 02:51:39;;;;;;;3.80;2.30;;;5.90;99.90;;;;;;4950926;28;20851;-47
2023/01/17 02:54:32;;;;;;;3.50;2.30;;;6.00;99.90;;;;;;4950957;28;20456;-48
2023/01/17 02:57:13;;;;;;;3.30;2.27;;;6.20;99.90;;;;;;4951122;28;20441;-48
2023/01/17 02:59:46;;;;;;;3.27;2.27;;;6.00;99.90;;;;;;4950622;28;20942;-47
2023/01/17 03:02:22;;;;;;;3.10;2.37;;;6.00;99.90;;;;;;4951038;28;20412;-48
2023/01/17 03:04:55;;;;;;;3.90;2.63;;;6.30;99.90;;;;;;5017028;28;21026;-47
2023/01/17 03:07:25;;;;;;;3.13;2.53;;;6.20;99.90;;;;;;4950803;29;20421;-48
2023/01/17 03:09:58;;;;;;;5.40;2.60;;;5.50;99.90;;;;;;4950399;28;20411;-48
2023/01/17 03:12:27;;;;;;;4.30;2.40;;;6.20;99.90;;;;;;4950793;28;20407;-48
2023/01/17 03:14:53;;;;;;;5.63;2.50;;;6.20;99.90;;;;;;4950693;28;20457;-48
2023/01/17 03:17:22;;;;;;;3.10;2.40;;;6.40;99.90;;;;;;4950705;29;20418;-48
2023/01/17 03:19:48;;;;;;;3.20;2.30;;;5.90;99.90;;;;;;4950166;29;20806;-48
2023/01/17 03:22:15;;;;;;;2.97;2.10;;;6.00;99.90;;;;;;4950720;29;20412;-48
2023/01/17 03:24:42;;;;;;;2.73;2.10;;;5.70;99.90;;;;;;4950447;28;20663;-47
2023/01/17 03:27:08;;;;;;;3.57;2.40;;;6.50;99.90;;;;;;4950637;29;20411;-48
2023/01/17 03:29:35;;;;;;;3.10;2.33;;;6.30;99.90;;;;;;4950490;28;20445;-48
2023/01/17 03:32:01;;;;;;;3.10;2.17;;;5.80;99.90;;;;;;4950627;28;20488;-48
2023/01/17 03:34:29;;;;;;;3.93;2.50;;;6.60;99.90;;;;;;5016610;28;20857;-48
2023/01/17 03:36:56;;;;;;;3.80;2.50;;;6.60;99.90;;;;;;4952285;29;20445;-48
2023/01/17 03:39:22;;;;;;;3.30;2.67;;;6.30;99.90;;;;;;4953525;28;20918;-48
2023/01/17 03:41:49;;;;;;;3.20;2.77;;;6.40;99.90;;;;;;4953859;28;20422;-48
2023/01/17 03:44:18;;;;;;;2.67;2.27;;;6.60;99.90;;;;;;4954790;28;20430;-47
2023/01/17 03:46:44;;;;;;;3.20;2.10;;;6.90;99.90;;;;;;4953624;28;20422;-48
2023/01/17 03:49:11;;;;;;;3.40;2.33;;;6.40;99.90;;;;;;5019782;28;20427;-47
2023/01/17 03:51:39;;;;;;;3.73;2.50;;;6.40;99.90;;;;;;4953650;28;20479;-46
2023/01/17 03:54:05;;;;;;;2.47;2.10;;;6.40;99.90;;;;;;4954001;28;20481;-47
2023/01/17 03:56:32;;;;;;;3.00;2.20;;;6.30;99.90;;;;;;4953456;29;20437;-46
2023/01/17 03:58:59;;;;;;;3.50;2.30;;;6.50;99.90;;;;;;5019651;28;20859;-47
2023/01/17 04:01:25;;;;;;;3.23;2.10;;;6.60;99.90;;;;;;4956393;29;20411;-47
2023/01/17 04:03:52;;;;;;;2.80;2.13;;;6.40;99.90;;;;;;4953302;28;20478;-47
2023/01/17 04:06:19;;;;;;;3.70;2.10;;;6.80;99.90;;;;;;4953366;28;20530;-47
2023/01/17 04:08:47;;;;;;;2.27;1.83;;;6.70;99.90;;;;;;4952970;29;20416;-47
2023/01/17 04:11:13;;;;;;;3.73;2.70;;;6.70;99.90;;;;;;4953287;28;20492;-47
2023/01/17 04:13:40;;;;;;;4.00;2.30;;;6.80;99.90;;;;;;4952982;28;20989;-47
2023/01/17 04:16:12;;;;;;;3.60;2.40;;;6.70;99.90;;;;;;4953099;29;20436;-46
2023/01/17 04:18:38;;;;;;;4.33;2.20;;;6.50;99.90;;;;;;4952918;28;20412;-47
2023/01/17 04:21:06;;;;;;;4.47;2.00;;;6.20;99.90;;;;;;4952978;29;20772;-47
2023/01/17 04:23:33;;;;;;;2.20;1.70;;;6.60;99.90;;;;;;4953067;28;20973;-46
2023/01/17 04:26:02;;;;;;;3.57;2.00;;;6.60;99.90;;;;;;4952939;29;20445;-47
2023/01/17 04:28:29;;;;;;;2.43;1.87;;;6.60;99.90;;;;;;4952522;29;20493;-47
2023/01/17 04:30:57;;;;;;;6.50;2.37;;;6.60;99.90;;;;;;4952903;28;20481;-47
2023/01/17 04:33:24;;;;;;;2.60;1.63;;;6.80;99.90;;;;;;5019160;28;20457;-47
2023/01/17 04:35:53;;;;;;;3.00;2.00;;;6.70;99.90;;;;;;4952836;28;20452;-47
2023/01/17 04:38:19;;;;;;;3.23;1.63;;;6.50;99.90;;;;;;4952630;28;20408;-47
2023/01/17 04:40:47;;;;;;;2.23;1.40;;;6.80;99.90;;;;;;4952746;29;20409;-47
2023/01/17 04:43:15;;;;;;;2.40;1.77;;;6.60;99.90;;;;;;4952823;28;20509;-46
2023/01/17 04:45:41;;;;;;;2.00;1.37;;;6.50;99.90;;;;;;4952897;28;20528;-47
2023/01/17 04:48:11;;;;;;;2.20;1.60;;;6.70;99.90;;;;;;4952518;28;20435;-47
2023/01/17 04:50:38;;;;;;;2.27;1.20;;;6.90;99.90;;;;;;4952652;28;20566;-46
2023/01/17 04:53:05;;;;;;;1.60;1.37;;;6.50;99.90;;;;;;4952631;28;20832;-47
2023/01/17 04:55:31;;;;;;;4.50;2.07;;;6.70;99.90;;;;;;4952603;28;20451;-47
2023/01/17 04:57:58;;;;;;;2.77;1.50;;;6.30;99.90;;;;;;4952388;29;20438;-47
2023/01/17 05:00:26;;;;;;;2.40;1.40;;;6.60;99.90;;;;;;4952312;29;20905;-47
2023/01/17 05:02:53;;;;;;;2.73;1.83;;;6.60;99.90;;;;;;4952871;28;20435;-47
2023/01/17 05:05:19;;;;;;;2.60;1.90;;;6.60;99.90;;;;;;4952588;29;20416;-47
2023/01/17 05:07:53;;;;;;;1.50;1.10;;;6.70;99.90;;;;;;4952626;28;20423;-47
2023/01/17 05:10:19;;;;;;;1.73;1.30;;;6.90;99.90;;;;;;4952453;28;20448;-46
2023/01/17 05:12:53;;;;;;;1.50;1.20;;;6.60;99.90;;;;;;5018387;28;20446;-47
2023/01/17 05:15:20;;;;;;;1.70;1.20;;;6.80;99.90;;;;;;4952462;28;20407;-47
2023/01/17 05:17:48;;;;;;;1.90;1.20;;;6.70;99.90;;;;;;5018392;28;20423;-47
2023/01/17 05:20:14;;;;;;;1.93;1.30;;;6.80;99.90;;;;;;4952168;28;20445;-46
2023/01/17 05:22:41;;;;;;;2.70;1.70;;;6.80;99.90;;;;;;4952083;28;20407;-47
2023/01/17 05:25:08;;;;;;;1.90;1.50;;;6.60;99.90;;;;;;4952196;28;20901;-47
2023/01/17 05:27:35;;;;;;;2.07;1.40;;;6.70;99.90;;;;;;4951984;29;20504;-47
2023/01/17 05:30:02;;;;;;;1.83;1.33;;;6.60;99.90;;;;;;4951941;28;20775;-47
2023/01/17 05:32:28;;;;;;;3.03;2.10;;;6.40;99.90;;;;;;4952179;28;20456;-47
2023/01/17 05:34:56;;;;;;;5.23;3.60;;;6.60;99.90;;;;;;4952336;28;20469;-47
2023/01/17 05:37:23;;;;;;;2.63;2.40;;;6.70;99.90;;;;;;4951832;29;20421;-47
2023/01/17 05:39:50;;;;;;;3.70;2.73;;;6.70;99.90;;;;;;5017805;28;20944;-47
2023/01/17 05:42:17;;;;;;;3.73;2.77;;;6.80;99.90;;;;;;4951803;28;20966;-47
2023/01/17 05:44:43;;;;;;;8.27;1.80;;;6.70;99.90;;;;;;4952020;28;20463;-47
2023/01/17 05:47:10;;;;;;;3.00;2.40;;;6.60;99.90;;;;;;4952132;28;20512;-47
2023/01/17 05:49:37;;;;;;;3.20;1.93;;;6.50;99.90;;;;;;4951828;28;20411;-47
2023/01/17 05:52:05;;;;;;;2.73;1.87;;;6.70;99.90;;;;;;4952313;28;20495;-47
2023/01/17 05:54:32;;;;;;;2.23;2.03;;;6.80;99.90;;;;;;4951780;28;20436;-47
2023/01/17 05:56:58;;;;;;;2.83;2.63;;;6.90;99.90;;;;;;4952011;28;20510;-47
2023/01/17 05:59:25;;;;;;;2.93;2.03;;;6.60;99.90;;;;;;4951068;29;20896;-47
2023/01/17 06:01:53;;;;;;;5.40;2.43;;;6.80;99.90;;;;;;4951779;29;20793;-48
2023/01/17 06:04:19;;;;;;;3.33;1.97;;;6.70;99.90;;;;;;4973745;23;20887;-47
2023/01/17 06:06:46;;;;;;;3.27;2.77;;;6.70;99.90;;;;;;4951310;29;20426;-45
2023/01/17 06:09:14;;;;;;;2.87;1.87;;;7.30;99.90;;;;;;4950881;29;20494;-48
2023/01/17 06:11:41;;;;;;;2.87;2.57;;;6.70;99.90;;;;;;4950977;29;20460;-49
2023/01/17 06:14:08;;;;;;;3.07;2.67;;;6.80;99.90;;;;;;4950895;28;20836;-46
2023/01/17 06:16:35;;;;;;;3.67;2.17;;;6.80;99.90;;;;;;4950786;28;20436;-49
2023/01/17 06:19:01;;;;;;;3.00;2.70;;;6.20;99.90;;;;;;4950548;28;20433;-48
2023/01/17 06:21:29;;;;;;;3.70;3.20;;;6.70;99.90;;;;;;4950801;28;20426;-48
2023/01/17 06:23:56;;;;;;;3.47;2.77;;;6.70;99.90;;;;;;4950459;28;20427;-47
2023/01/17 06:26:23;;;;;;;3.90;3.50;;;6.70;99.90;;;;;;4950947;28;20873;-49
2023/01/17 06:28:50;;;;;;;3.47;3.17;;;6.70;99.90;;;;;;4950083;29;20753;-49
2023/01/17 06:31:17;;;;;;;4.50;3.73;;;6.80;99.90;;;;;;4950334;29;20455;-47
2023/01/17 06:33:43;;;;;;;3.80;2.97;;;6.30;99.90;;;;;;4950726;28;20927;-49
2023/01/17 06:36:10;;;;;;;2.60;2.40;;;6.20;99.90;;;;;;4950739;28;20515;-48
2023/01/17 06:38:36;;;;;;;3.93;2.90;;;6.80;99.90;;;;;;4949683;29;20774;-48
2023/01/17 06:41:04;;;;;;;3.27;2.97;;;6.80;99.90;;;;;;4951095;28;20439;-48
2023/01/17 06:43:33;;;;;;;5.17;2.77;;;6.50;99.90;;;;;;5016214;28;20483;-49
2023/01/17 06:46:00;;;;;;;3.00;2.70;;;6.80;99.90;;;;;;4950335;29;20536;-47
2023/01/17 06:48:27;;;;;;;3.77;3.13;;;6.80;99.90;;;;;;4950156;29;20444;-50
2023/01/17 06:50:53;;;;;;;3.73;2.90;;;6.70;99.90;;;;;;5016302;28;20458;-48
2023/01/17 06:53:20;;;;;;;3.43;2.80;;;6.80;99.90;;;;;;4950233;28;20424;-48
2023/01/17 06:55:46;;;;;;;6.13;2.83;;;7.20;99.90;;;;;;4950075;29;20446;-47
2023/01/17 06:58:13;;;;;;;3.47;2.60;;;6.20;99.90;;;;;;5016255;28;20436;-49
2023/01/17 07:00:41;;;;;;;2.10;1.90;;;6.80;99.90;;;;;;4950106;28;20889;-49
2023/01/17 07:03:17;;;;;;;4.00;2.90;;;6.90;99.90;;;;;;4949886;28;20495;-49
2023/01/17 07:05:44;;;;;;;3.00;2.60;;;6.70;99.90;;;;;;4950126;28;20463;-48
2023/01/17 07:08:10;;;;;;;3.63;2.70;;;6.70;99.90;;;;;;4949854;28;20555;-49
2023/01/17 07:10:37;;;;;;;3.20;2.57;;;6.70;99.90;;;;;;4950322;28;20441;-48
2023/01/17 07:13:04;;;;;;;4.10;2.60;;;6.80;99.90;;;;;;4953265;28;20489;-48
2023/01/17 07:15:30;;;;;;;4.00;2.90;;;6.40;99.90;;;;;;4953483;29;20430;-46
2023/01/17 07:18:00;;;;;;;4.67;3.30;;;7.00;99.90;;;;;;4953364;28;20923;-48
2023/01/17 07:20:27;;;;;;;5.13;4.40;;;6.60;99.90;;;;;;4953693;28;20448;-47
2023/01/17 07:22:54;;;;;;;3.20;2.90;;;6.80;99.90;;;;;;5020068;28;20541;-48
2023/01/17 07:25:20;;;;;;;5.47;3.23;;;7.00;99.90;;;;;;4954031;29;20442;-49
2023/01/17 07:27:47;;;;;;;4.70;3.77;;;6.60;99.90;;;;;;4952917;29;20423;-47
2023/01/17 07:30:14;;;;;;;5.80;3.97;;;6.90;99.90;;;;;;4952565;29;20416;-49
2023/01/17 07:32:41;;;;;;;4.57;3.37;;;6.70;99.90;;;;;;4953609;28;20530;-48
2023/01/17 07:35:09;;;;;;;4.20;3.17;;;6.30;99.90;;;;;;4952711;28;20431;-49
2023/01/17 07:37:37;;;;;;;4.03;3.60;;;6.90;99.90;;;;;;4953029;28;20424;-47
2023/01/17 07:40:05;;;;;;;3.70;3.30;;;6.20;99.90;;;;;;4952805;28;20457;-49
2023/01/17 07:42:32;;;;;;;4.37;3.43;;;6.90;99.90;;;;;;4953073;29;20419;-47
2023/01/17 07:45:00;;;;;;;3.30;2.90;;;6.70;99.90;;;;;;5019707;28;20469;-47
2023/01/17 07:47:27;;;;;;;4.03;2.67;;;6.80;99.90;;;;;;4952668;28;20448;-49
2023/01/17 07:49:54;;;;;;;3.47;2.73;;;6.80;99.90;;;;;;4952414;28;20417;-46
2023/01/17 07:52:22;;;;;;;3.33;3.03;;;6.90;99.90;;;;;;4952833;28;20499;-48
2023/01/17 07:54:49;;;;;;;4.97;3.20;;;6.40;99.90;;;;;;4952813;28;20442;-47
2023/01/17 07:57:15;;;;;;;3.63;3.33;;;7.10;99.90;;;;;;4952696;29;20955;-48
2023/01/17 07:59:42;;;;;;;4.97;3.50;;;6.40;99.90;;;;;;4952334;29;20416;-49
2023/01/17 08:02:16;;;;;;;7.00;3.67;;;6.80;99.90;;;;;;4952443;29;20442;-49
2023/01/17 08:04:43;;;;;;;5.27;2.73;;;6.80;99.90;;;;;;5018548;28;20519;-48
2023/01/17 08:07:10;;;;;;;6.50;2.60;;;7.10;99.90;;;;;;5018883;28;20550;-47
2023/01/17 08:09:38;;;;;;;10.80;6.87;;;6.80;99.90;;;;;;4953014;28;20433;-48
2023/01/17 08:12:05;;;;;;;8.23;6.67;;;6.60;99.90;;;;;;4952699;29;20566;-48
2023/01/17 08:14:31;;;;;;;6.50;3.10;;;6.90;99.90;;;;;;4952813;28;20444;-48
2023/01/17 08:17:04;;;;;;;3.40;2.50;;;7.00;99.90;;;;;;4952862;29;20461;-48
2023/01/17 08:19:30;;;;;;;4.53;2.87;;;6.40;99.90;;;;;;4953154;28;20807;-48
2023/01/17 08:21:57;;;;;;;4.53;2.27;;;6.70;99.90;;;;;;4952325;28;20437;-47
2023/01/17 08:24:23;;;;;;;3.73;2.80;;;6.90;99.90;;;;;;4952879;28;20462;-47
2023/01/17 08:26:53;;;;;;;6.30;3.80;;;7.00;99.90;;;;;;4952376;29;20760;-48
2023/01/17 08:29:20;;;;;;;4.23;2.93;;;7.00;99.90;;;;;;4951667;28;20416;-48
2023/01/17 08:31:47;;;;;;;4.20;2.40;;;7.00;99.90;;;;;;4952104;28;20779;-48
2023/01/17 08:34:14;;;;;;;5.33;2.33;;;6.80;99.90;;;;;;5018595;28;20447;-48
2023/01/17 08:36:41;;;;;;;8.23;3.10;;;6.40;99.90;;;;;;4952036;29;20430;-48
2023/01/17 08:39:08;;;;;;;3.50;2.30;;;6.80;99.90;;;;;;4951735;28;20442;-47
2023/01/17 08:41:35;;;;;;;3.03;2.20;;;7.20;99.90;;;;;;4951758;28;20423;-48
2023/01/17 08:44:03;;;;;;;4.27;2.50;;;7.00;99.90;;;;;;4951114;28;20432;-48
2023/01/17 08:46:30;;;;;;;4.20;3.70;;;7.20;99.90;;;;;;4951741;29;20445;-47
2023/01/17 08:48:58;;;;;;;2.80;2.47;;;7.40;99.90;;;;;;4951553;28;20909;-48
2023/01/17 08:51:26;;;;;;;3.43;2.60;;;7.50;99.90;;;;;;4952150;28;20453;-48
2023/01/17 08:53:53;;;;;;;3.60;2.23;;;7.30;99.90;;;;;;5018123;28;20456;-48
2023/01/17 08:56:19;;;;;;;7.60;2.93;;;7.20;99.90;;;;;;4951939;29;20410;-49
2023/01/17 08:58:46;;;;;;;3.43;2.23;;;7.00;99.90;;;;;;4951342;29;20899;-47
2023/01/17 09:01:14;;;;;;;2.47;1.77;;;7.10;99.90;;;;;;4951796;28;20475;-47
2023/01/17 09:03:41;;;;;;;2.73;2.33;;;7.00;99.90;;;;;;4951734;28;21032;-46
2023/01/17 09:06:10;;;;;;;6.07;2.70;;;7.40;99.90;;;;;;4951225;28;20499;-47
2023/01/17 09:08:37;;;;;;;2.90;2.10;;;7.10;99.90;;;;;;4951309;29;20413;-49
2023/01/17 09:11:05;;;;;;;3.17;2.27;;;7.20;99.90;;;;;;4951930;28;20450;-48
2023/01/17 09:13:31;;;;;;;2.60;2.17;;;6.80;99.90;;;;;;4952678;28;20467;-49
2023/01/17 09:15:58;;;;;;;2.47;1.70;;;7.70;99.90;;;;;;4952605;29;20420;-48
2023/01/17 09:18:27;;;;;;;6.37;2.03;;;7.50;99.90;;;;;;5018426;28;20453;-47
2023/01/17 09:20:58;;;;;;;2.70;2.33;;;7.80;99.90;;;;;;4952875;28;20516;-47
2023/01/17 09:23:26;;;;;;;7.33;3.00;;;7.60;99.90;;;;;;4953150;28;20472;-48
2023/01/17 09:25:53;;;;;;;4.73;2.00;;;7.90;99.90;;;;;;4952518;28;20507;-47
2023/01/17 09:28:20;;;;;;;5.23;2.27;;;7.70;99.90;;;;;;4952143;29;20789;-47
2023/01/17 09:30:47;;;;;;;9.10;2.70;;;7.80;99.90;;;;;;4952023;28;20928;-49
2023/01/17 09:33:14;;;;;;;4.43;1.97;;;7.30;99.90;;;;;;4951094;28;20484;-48
2023/01/17 09:35:42;;;;;;;7.40;1.90;;;7.90;99.90;;;;;;4951253;29;20511;-49
2023/01/17 09:38:08;;;;;;;3.90;1.70;;;7.40;99.90;;;;;;5016991;28;20466;-48
2023/01/17 09:40:36;;;;;;;4.97;1.60;;;8.10;99.90;;;;;;4951171;29;20959;-50
2023/01/17 09:43:07;;;;;;;4.70;1.63;;;8.00;99.90;;;;;;4951627;28;20736;-49
2023/01/17 09:45:34;;;;;;;4.60;1.80;;;8.00;99.90;;;;;;4952061;29;20471;-48
2023/01/17 09:48:06;;;;;;;2.90;1.33;;;7.60;99.90;;;;;;4951883;28;20443;-48
2023/01/17 09:50:42;;;;;;;2.57;1.80;;;8.00;99.90;;;;;;5017940;28;20437;-47
2023/01/17 09:53:13;;;;;;;1.93;1.20;;;8.10;99.90;;;;;;4951352;28;20827;-49
2023/01/17 09:55:43;;;;;;;2.73;1.70;;;8.10;99.90;;;;;;4951396;29;20423;-48
2023/01/17 09:58:16;;;;;;;7.07;1.73;;;8.00;99.90;;;;;;4952141;29;21031;-48
2023/01/17 10:00:54;;;;;;;2.20;1.40;;;7.30;99.90;;;;;;4951944;28;20435;-46
2023/01/17 10:03:35;;;;;;;3.77;1.47;;;7.90;99.90;;;;;;4951417;28;20441;-49
2023/01/17 10:06:22;;;;;;;38.07;24.83;;;8.00;99.90;;;;;;4951504;29;20416;-48
2023/01/17 10:09:06;;;;;;;19.33;12.43;;;7.90;99.90;;;;;;4950576;28;20802;-49
2023/01/17 10:11:48;;;;;;;4.80;1.77;;;7.90;99.90;;;;;;4950746;29;20409;-47
2023/01/17 10:14:31;;;;;;;2.03;1.63;;;8.00;99.90;;;;;;4950704;28;20834;-48
2023/01/17 10:17:06;;;;;;;1.90;1.20;;;8.10;99.90;;;;;;4950627;28;20906;-50
2023/01/17 10:20:01;;;;;;;3.73;1.77;;;8.00;99.90;;;;;;4952246;29;20527;-49
2023/01/17 10:22:42;;;;;;;3.47;1.57;;;7.90;99.90;;;;;;5016606;28;20500;-47
2023/01/17 10:25:47;;;;;;;6.67;1.97;;;7.70;99.90;;;;;;4950657;28;20807;-50
2023/01/17 10:28:18;;;;;;;5.70;1.30;;;8.00;99.90;;;;;;4956815;28;20484;-49
2023/01/17 10:30:48;;;;;;;2.70;1.63;;;8.10;99.90;;;;;;4950805;28;20414;-50
2023/01/17 10:33:19;;;;;;;2.07;1.13;;;8.00;99.90;;;;;;4950237;28;20491;-50
2023/01/17 10:35:56;;;;;;;4.27;1.80;;;8.00;99.90;;;;;;4950382;29;20442;-49
2023/01/17 10:38:28;;;;;;;1.90;1.10;;;8.20;99.90;;;;;;4950238;28;20690;-48
2023/01/17 10:41:00;;;;;;;3.10;2.00;;;7.40;99.90;;;;;;4950393;28;20470;-49
2023/01/17 10:43:39;;;;;;;2.43;1.07;;;7.90;99.90;;;;;;4950414;28;20984;-48
2023/01/17 10:46:14;;;;;;;2.80;1.60;;;7.90;99.90;;;;;;4952596;28;20406;-48
2023/01/17 10:48:44;;;;;;;1.70;1.17;;;7.50;99.90;;;;;;4953594;28;20872;-49
2023/01/17 10:51:41;;;;;;;4.35;1.60;;;8.00;99.90;;;;;;5019853;28;20434;-50
2023/01/17 10:54:15;;;;;;;3.77;1.23;;;8.10;99.90;;;;;;4953373;28;20240;-49
2023/01/17 10:56:42;;;;;;;2.67;1.87;;;7.80;99.90;;;;;;4953677;28;20683;-48
2023/01/17 10:59:18;;;;;;;4.28;1.80;;;7.90;99.90;;;;;;4952709;29;20433;-49
2023/01/17 11:01:45;;;;;;;3.53;1.63;;;8.00;99.90;;;;;;4953368;28;20482;-48
2023/01/17 11:04:18;;;;;;;5.85;1.60;;;8.00;99.90;;;;;;4952679;28;20436;-49
2023/01/17 11:06:46;;;;;;;4.30;1.58;;;8.20;99.90;;;;;;5019377;28;20872;-49
2023/01/17 11:09:13;;;;;;;4.03;1.87;;;7.90;99.90;;;;;;4953239;28;20586;-48
2023/01/17 11:11:47;;;;;;;3.63;1.38;;;8.40;99.90;;;;;;4952242;29;20441;-49
2023/01/17 11:14:20;;;;;;;3.33;1.43;;;8.40;99.90;;;;;;4953955;28;20231;-48
2023/01/17 11:16:59;;;;;;;7.00;1.50;;;8.30;99.90;;;;;;4953890;28;20446;-48
2023/01/17 11:19:30;;;;;;;4.63;1.80;;;8.00;99.90;;;;;;4953244;29;20413;-48
2023/01/17 11:22:00;;;;;;;3.33;1.60;;;8.00;99.90;;;;;;5019687;28;20424;-49
2023/01/17 11:24:33;;;;;;;3.60;1.60;;;7.30;99.90;;;;;;4953247;28;20723;-48
2023/01/17 11:26:59;;;;;;;3.40;1.50;;;7.90;99.90;;;;;;4953077;28;20442;-49
2023/01/17 11:29:33;;;;;;;3.00;1.40;;;7.90;99.90;;;;;;4952819;29;20871;-48
2023/01/17 11:32:28;;;;;;;5.43;1.63;;;7.70;99.90;;;;;;4952991;28;20505;-49
2023/01/17 11:35:17;;;;;;;4.23;2.00;;;7.70;99.90;;;;;;4953174;28;20448;-49
2023/01/17 11:37:52;;;;;;;3.43;1.60;;;7.90;99.90;;;;;;4953105;29;20443;-49
2023/01/17 11:40:25;;;;;;;6.17;4.00;;;7.80;99.90;;;;;;4952944;28;20456;-49
2023/01/17 11:43:01;;;;;;;2.30;1.57;;;7.50;99.90;;;;;;4953086;28;20508;-48
2023/01/17 11:45:31;;;;;;;1.80;1.10;;;7.40;99.90;;;;;;4953210;29;20436;-49
2023/01/17 11:48:16;;;;;;;2.10;1.40;;;7.50;99.90;;;;;;4952947;28;20433;-48
2023/01/17 11:50:46;;;;;;;3.37;1.43;;;7.50;99.90;;;;;;4953183;28;20422;-49
2023/01/17 11:53:19;;;;;;;5.70;1.80;;;7.20;99.90;;;;;;4952843;28;20582;-48
2023/01/17 11:55:58;;;;;;;4.53;1.60;;;7.60;99.90;;;;;;4952698;29;20530;-49
2023/01/17 11:58:26;;;;;;;6.27;3.00;;;7.60;99.90;;;;;;4951283;28;20420;-49
2023/01/17 12:01:01;;;;;;;4.57;2.30;;;7.60;99.90;;;;;;4952850;28;20821;-48
2023/01/17 12:03:53;;;;;;;4.40;2.63;;;7.50;99.90;;;;;;5032822;23;20543;-48
2023/01/17 12:06:29;;;;;;;4.70;2.60;;;7.70;99.90;;;;;;4934917;28;20451;-47
2023/01/17 12:09:08;;;;;;;3.10;2.10;;;7.70;99.90;;;;;;4935532;28;20767;-48
2023/01/17 12:13:59;;;;;;;8.47;2.97;;;7.80;99.90;;;;;;4933736;28;20448;-48
2023/01/17 12:14:40;;;;;;;4.20;2.20;;;7.70;99.90;;;;;;4933655;28;20925;-48
2023/01/17 12:17:22;;;;;;;4.77;2.20;;;7.60;99.90;;;;;;4934360;28;20416;-48
2023/01/17 12:20:00;;;;;;;3.43;1.97;;;7.70;99.90;;;;;;4933467;29;20784;-49
2023/01/17 12:22:46;;;;;;;7.07;2.80;;;8.20;99.90;;;;;;4933488;28;20413;-46
2023/01/17 12:25:26;;;;;;;4.30;2.10;;;7.70;99.90;;;;;;4933965;28;20459;-47
2023/01/17 12:28:10;;;;;;;7.25;2.10;;;7.70;99.90;;;;;;4933142;29;20423;-47
2023/01/17 12:31:03;;;;;;;4.83;3.53;;;7.70;99.90;;;;;;4998968;28;20256;-47
2023/01/17 12:33:37;;;;;;;7.30;3.93;;;7.80;99.90;;;;;;4933654;28;20461;-48
2023/01/17 12:36:16;;;;;;;7.30;3.83;;;8.00;99.90;;;;;;4933769;29;20448;-47
2023/01/17 12:38:45;;;;;;;5.33;4.07;;;7.10;99.90;;;;;;4933216;28;20480;-47
2023/01/17 12:41:16;;;;;;;8.87;4.63;;;7.20;99.90;;;;;;4933544;28;20418;-47
2023/01/17 12:43:44;;;;;;;6.17;3.07;;;7.60;99.90;;;;;;4933297;29;20788;-48
2023/01/17 12:46:19;;;;;;;12.17;6.53;;;7.70;99.90;;;;;;4933314;28;20437;-48
2023/01/17 12:48:52;;;;;;;4.73;2.80;;;7.70;99.90;;;;;;4933029;28;20423;-47
2023/01/17 12:51:26;;;;;;;10.50;6.00;;;7.80;99.90;;;;;;4932923;28;20421;-47
2023/01/17 12:54:01;;;;;;;9.37;3.53;;;7.60;99.90;;;;;;4933325;28;20469;-48
2023/01/17 12:56:32;;;;;;;3.83;2.60;;;7.60;99.90;;;;;;4933190;29;20438;-47
2023/01/17 12:59:07;;;;;;;4.10;2.47;;;7.70;99.90;;;;;;4932921;29;20947;-48
2023/01/17 13:01:38;;;;;;;2.77;1.80;;;7.60;99.90;;;;;;4933239;29;20443;-48
2023/01/17 13:04:17;;;;;;;6.45;2.10;;;8.30;99.90;;;;;;4933000;28;20456;-47
2023/01/17 13:06:53;;;;;;;5.63;1.90;;;7.80;99.90;;;;;;4933484;28;20212;-48
2023/01/17 13:09:22;;;;;;;3.50;2.20;;;7.80;99.90;;;;;;4997449;28;20429;-48
2023/01/17 13:11:52;;;;;;;5.80;2.20;;;7.80;99.90;;;;;;4932777;29;20416;-48
2023/01/17 13:14:19;;;;;;;4.53;1.90;;;7.70;99.90;;;;;;4932885;29;20495;-47
2023/01/17 13:16:52;;;;;;;6.03;2.40;;;7.50;99.90;;;;;;4933257;29;20522;-48
2023/01/17 13:19:28;;;;;;;2.40;1.60;;;7.40;99.90;;;;;;4997907;28;20464;-48
2023/01/17 13:21:57;;;;;;;7.07;2.60;;;8.00;99.90;;;;;;4932579;29;20460;-48
2023/01/17 13:24:41;;;;;;;6.03;2.13;;;7.90;99.90;;;;;;4933130;29;20215;-48
2023/01/17 13:27:44;;;;;;;3.20;1.70;;;8.00;99.90;;;;;;4998782;28;20442;-48
2023/01/17 13:30:31;;;;;;;4.20;1.90;;;8.00;99.90;;;;;;4938485;28;20467;-48
2023/01/17 13:33:22;;;;;;;5.53;1.70;;;8.10;99.90;;;;;;4933043;28;20415;-48
2023/01/17 13:36:04;;;;;;;7.13;1.83;;;8.10;99.90;;;;;;4932645;29;20451;-48
2023/01/17 13:38:54;;;;;;;6.97;1.77;;;8.00;99.90;;;;;;4932493;29;20765;-48
2023/01/17 13:41:36;;;;;;;4.03;2.27;;;8.00;99.90;;;;;;4932870;28;20906;-48
2023/01/17 13:44:23;;;;;;;5.03;1.70;;;8.20;99.90;;;;;;4932837;28;20459;-48
2023/01/17 13:46:58;;;;;;;5.30;1.80;;;8.10;99.90;;;;;;4932739;28;20507;-48
2023/01/17 13:49:43;;;;;;;7.63;2.30;;;8.00;99.90;;;;;;4932276;29;20451;-48
2023/01/17 13:52:30;;;;;;;5.20;2.57;;;8.10;99.90;;;;;;4932941;28;20857;-48
2023/01/17 13:54:58;;;;;;;1.90;1.50;;;8.10;99.90;;;;;;4933120;28;20488;-48
2023/01/17 13:57:40;;;;;;;9.20;2.20;;;7.80;99.90;;;;;;4933311;28;20423;-48
2023/01/17 14:00:49;;;;;;;35.97;23.13;;;7.60;99.90;;;;;;4932407;28;20438;-48
2023/01/17 14:03:54;;;;;;;3.40;2.03;;;7.40;99.90;;;;;;4932670;29;20447;-47
2023/01/17 14:06:35;;;;;;;3.87;2.03;;;7.50;99.90;;;;;;4999062;28;20512;-48
2023/01/17 14:09:15;;;;;;;6.47;2.13;;;7.70;99.90;;;;;;4931714;29;20429;-48
2023/01/17 14:11:59;;;;;;;3.10;1.97;;;7.60;99.90;;;;;;4933614;29;20440;-47
2023/01/17 14:14:51;;;;;;;3.63;2.13;;;7.20;99.90;;;;;;4932563;29;20488;-48
2023/01/17 14:17:51;;;;;;;5.23;1.70;;;7.60;99.90;;;;;;4932759;29;20405;-48
2023/01/17 14:21:02;;;;;;;10.80;2.20;;;7.60;99.90;;;;;;4931874;28;20453;-47
2023/01/17 14:23:58;;;;;;;8.67;2.93;;;7.30;99.90;;;;;;4932994;28;20440;-47
2023/01/17 14:26:33;;;;;;;4.00;2.30;;;7.80;99.90;;;;;;4944070;28;20438;-47
2023/01/17 14:29:38;;;;;;;5.40;2.00;;;7.50;99.90;;;;;;4932265;28;20940;-47
2023/01/17 14:32:08;;;;;;;3.90;2.00;;;7.70;99.90;;;;;;4931878;29;20421;-47
2023/01/17 14:34:36;;;;;;;2.77;2.07;;;7.90;99.90;;;;;;4932246;29;20488;-47
2023/01/17 14:37:15;;;;;;;5.43;2.80;;;7.50;99.90;;;;;;4932538;28;20880;-47
2023/01/17 14:39:46;;;;;;;8.77;2.67;;;7.70;99.90;;;;;;4931403;29;20443;-47
2023/01/17 14:42:17;;;;;;;11.03;3.90;;;7.60;99.90;;;;;;4931648;28;20425;-47
2023/01/17 14:44:49;;;;;;;5.10;2.27;;;7.70;99.90;;;;;;4931724;28;20885;-48